sensor_id;sensor_type;location;lat;lon;timestamp;P1;durP1;ratioP1;P2;durP2;ratioP2
32292;SDS011;43233;48.608;8.838;2023-09-12T00:00:55;14.60;;;7.50;;
32292;SDS011;43233;48.608;8.838;2023-09-12T00:03:22;8.70;;;6.70;;
32292;SDS011;43233;48.608;8.838;2023-09-12T00:05:55;14.40;;;8.67;;
32292;SDS011;43233;48.608;8.838;2023-09-12T00:08:22;8.13;;;7.30;;
32292;SDS011;43233;48.608;8.838;2023-09-12T00:11:09;13.80;;;7.80;;
32292;SDS011;43233;48.608;8.838;2023-09-12T00:13:38;12.83;;;8.13;;
32292;SDS011;43233;48.608;8.838;2023-09-12T00:16:05;16.90;;;7.90;;
32292;SDS011;43233;48.608;8.838;2023-09-12T00:18:31;10.80;;;7.57;;
32292;SDS011;43233;48.608;8.838;2023-09-12T00:20:59;12.20;;;7.17;;
32292;SDS011;43233;48.608;8.838;2023-09-12T00:23:25;16.23;;;7.27;;
32292;SDS011;43233;48.608;8.838;2023-09-12T00:25:52;11.53;;;8.00;;
32292;SDS011;43233;48.608;8.838;2023-09-12T00:28:18;14.33;;;7.80;;
32292;SDS011;43233;48.608;8.838;2023-09-12T00:30:44;16.90;;;7.73;;
32292;SDS011;43233;48.608;8.838;2023-09-12T00:33:10;9.70;;;7.80;;
32292;SDS011;43233;48.608;8.838;2023-09-12T00:35:35;9.40;;;8.23;;
32292;SDS011;43233;48.608;8.838;2023-09-12T00:38:01;12.47;;;7.57;;
32292;SDS011;43233;48.608;8.838;2023-09-12T00:40:26;15.00;;;8.53;;
32292;SDS011;43233;48.608;8.838;2023-09-12T00:42:52;16.67;;;8.30;;
32292;SDS011;43233;48.608;8.838;2023-09-12T00:45:18;14.87;;;8.40;;
32292;SDS011;43233;48.608;8.838;2023-09-12T00:47:44;16.53;;;7.97;;
32292;SDS011;43233;48.608;8.838;2023-09-12T00:50:11;13.23;;;8.17;;
32292;SDS011;43233;48.608;8.838;2023-09-12T00:52:38;17.00;;;7.63;;
32292;SDS011;43233;48.608;8.838;2023-09-12T00:55:04;13.30;;;8.33;;
32292;SDS011;43233;48.608;8.838;2023-09-12T00:57:30;14.10;;;7.60;;
32292;SDS011;43233;48.608;8.838;2023-09-12T00:59:57;8.50;;;7.07;;
32292;SDS011;43233;48.608;8.838;2023-09-12T01:02:24;14.87;;;7.97;;
32292;SDS011;43233;48.608;8.838;2023-09-12T01:04:50;12.30;;;8.87;;
32292;SDS011;43233;48.608;8.838;2023-09-12T01:07:16;14.70;;;7.80;;
32292;SDS011;43233;48.608;8.838;2023-09-12T01:09:42;9.17;;;8.00;;
32292;SDS011;43233;48.608;8.838;2023-09-12T01:12:08;12.07;;;8.57;;
32292;SDS011;43233;48.608;8.838;2023-09-12T01:14:33;9.63;;;8.63;;
32292;SDS011;43233;48.608;8.838;2023-09-12T01:16:59;11.87;;;8.60;;
32292;SDS011;43233;48.608;8.838;2023-09-12T01:19:28;17.47;;;8.53;;
32292;SDS011;43233;48.608;8.838;2023-09-12T01:29:51;11.20;;;8.00;;
32292;SDS011;43233;48.608;8.838;2023-09-12T01:32:21;13.80;;;8.33;;
32292;SDS011;43233;48.608;8.838;2023-09-12T01:34:47;11.00;;;7.53;;
32292;SDS011;43233;48.608;8.838;2023-09-12T01:37:13;11.83;;;8.07;;
32292;SDS011;43233;48.608;8.838;2023-09-12T01:39:39;13.33;;;8.40;;
32292;SDS011;43233;48.608;8.838;2023-09-12T01:42:05;11.23;;;7.23;;
32292;SDS011;43233;48.608;8.838;2023-09-12T01:44:33;23.33;;;9.80;;
32292;SDS011;43233;48.608;8.838;2023-09-12T01:47:02;9.10;;;7.10;;
32292;SDS011;43233;48.608;8.838;2023-09-12T01:49:30;17.43;;;8.57;;
32292;SDS011;43233;48.608;8.838;2023-09-12T01:51:57;22.53;;;8.17;;
32292;SDS011;43233;48.608;8.838;2023-09-12T01:54:24;16.80;;;8.90;;
32292;SDS011;43233;48.608;8.838;2023-09-12T01:56:51;13.17;;;7.80;;
32292;SDS011;43233;48.608;8.838;2023-09-12T01:59:19;10.90;;;8.40;;
32292;SDS011;43233;48.608;8.838;2023-09-12T02:01:45;16.60;;;8.20;;
32292;SDS011;43233;48.608;8.838;2023-09-12T02:04:10;17.13;;;8.40;;
32292;SDS011;43233;48.608;8.838;2023-09-12T02:06:36;25.93;;;9.13;;
32292;SDS011;43233;48.608;8.838;2023-09-12T02:09:01;21.53;;;9.20;;
32292;SDS011;43233;48.608;8.838;2023-09-12T02:11:27;17.93;;;8.43;;
32292;SDS011;43233;48.608;8.838;2023-09-12T02:13:53;20.70;;;8.70;;
32292;SDS011;43233;48.608;8.838;2023-09-12T02:16:18;15.27;;;7.83;;
32292;SDS011;43233;48.608;8.838;2023-09-12T02:18:44;12.50;;;9.20;;
32292;SDS011;43233;48.608;8.838;2023-09-12T02:21:10;15.87;;;9.20;;
32292;SDS011;43233;48.608;8.838;2023-09-12T02:23:35;13.77;;;9.40;;
32292;SDS011;43233;48.608;8.838;2023-09-12T02:26:01;13.50;;;9.27;;
32292;SDS011;43233;48.608;8.838;2023-09-12T02:28:26;13.63;;;9.17;;
32292;SDS011;43233;48.608;8.838;2023-09-12T02:30:52;23.50;;;10.50;;
32292;SDS011;43233;48.608;8.838;2023-09-12T02:33:18;14.20;;;8.70;;
32292;SDS011;43233;48.608;8.838;2023-09-12T02:35:43;9.33;;;8.40;;
32292;SDS011;43233;48.608;8.838;2023-09-12T02:38:09;16.57;;;9.60;;
32292;SDS011;43233;48.608;8.838;2023-09-12T02:40:34;11.47;;;8.67;;
32292;SDS011;43233;48.608;8.838;2023-09-12T02:43:00;11.10;;;7.47;;
32292;SDS011;43233;48.608;8.838;2023-09-12T02:45:26;15.80;;;8.63;;
32292;SDS011;43233;48.608;8.838;2023-09-12T02:47:52;13.37;;;8.43;;
32292;SDS011;43233;48.608;8.838;2023-09-12T02:50:17;11.20;;;8.80;;
32292;SDS011;43233;48.608;8.838;2023-09-12T02:52:43;13.90;;;8.87;;
32292;SDS011;43233;48.608;8.838;2023-09-12T02:55:08;12.00;;;8.50;;
32292;SDS011;43233;48.608;8.838;2023-09-12T02:57:34;20.53;;;8.17;;
32292;SDS011;43233;48.608;8.838;2023-09-12T02:59:59;17.93;;;8.30;;
32292;SDS011;43233;48.608;8.838;2023-09-12T03:02:25;10.90;;;7.90;;
32292;SDS011;43233;48.608;8.838;2023-09-12T03:04:53;10.30;;;8.20;;
32292;SDS011;43233;48.608;8.838;2023-09-12T03:07:18;10.20;;;8.80;;
32292;SDS011;43233;48.608;8.838;2023-09-12T03:09:44;9.60;;;8.50;;
32292;SDS011;43233;48.608;8.838;2023-09-12T03:12:13;20.67;;;9.60;;
32292;SDS011;43233;48.608;8.838;2023-09-12T03:14:39;13.90;;;9.60;;
32292;SDS011;43233;48.608;8.838;2023-09-12T03:17:04;16.73;;;8.83;;
32292;SDS011;43233;48.608;8.838;2023-09-12T03:19:30;16.70;;;8.10;;
32292;SDS011;43233;48.608;8.838;2023-09-12T03:21:56;11.63;;;8.20;;
32292;SDS011;43233;48.608;8.838;2023-09-12T03:24:22;12.23;;;7.80;;
32292;SDS011;43233;48.608;8.838;2023-09-12T03:26:50;16.07;;;8.63;;
32292;SDS011;43233;48.608;8.838;2023-09-12T03:29:16;16.13;;;9.23;;
32292;SDS011;43233;48.608;8.838;2023-09-12T03:31:41;10.90;;;8.97;;
32292;SDS011;43233;48.608;8.838;2023-09-12T03:34:07;13.63;;;8.20;;
32292;SDS011;43233;48.608;8.838;2023-09-12T03:36:33;24.00;;;9.37;;
32292;SDS011;43233;48.608;8.838;2023-09-12T03:38:58;11.63;;;8.47;;
32292;SDS011;43233;48.608;8.838;2023-09-12T03:41:24;11.47;;;8.23;;
32292;SDS011;43233;48.608;8.838;2023-09-12T03:43:54;12.00;;;8.70;;
32292;SDS011;43233;48.608;8.838;2023-09-12T03:46:20;14.80;;;8.80;;
32292;SDS011;43233;48.608;8.838;2023-09-12T03:48:46;14.67;;;8.63;;
32292;SDS011;43233;48.608;8.838;2023-09-12T03:51:12;20.87;;;10.17;;
32292;SDS011;43233;48.608;8.838;2023-09-12T03:53:38;10.97;;;9.67;;
32292;SDS011;43233;48.608;8.838;2023-09-12T03:56:04;13.33;;;8.40;;
32292;SDS011;43233;48.608;8.838;2023-09-12T03:58:29;15.47;;;10.30;;
32292;SDS011;43233;48.608;8.838;2023-09-12T04:00:55;17.20;;;10.20;;
32292;SDS011;43233;48.608;8.838;2023-09-12T04:03:21;14.00;;;9.40;;
32292;SDS011;43233;48.608;8.838;2023-09-12T04:05:47;15.33;;;8.67;;
32292;SDS011;43233;48.608;8.838;2023-09-12T04:08:13;13.73;;;8.70;;
32292;SDS011;43233;48.608;8.838;2023-09-12T04:10:38;10.70;;;8.73;;
32292;SDS011;43233;48.608;8.838;2023-09-12T04:13:04;13.27;;;9.47;;
32292;SDS011;43233;48.608;8.838;2023-09-12T04:15:30;16.30;;;10.60;;
32292;SDS011;43233;48.608;8.838;2023-09-12T04:17:55;10.70;;;9.63;;
32292;SDS011;43233;48.608;8.838;2023-09-12T04:20:21;14.40;;;10.53;;
32292;SDS011;43233;48.608;8.838;2023-09-12T04:22:46;18.60;;;11.20;;
32292;SDS011;43233;48.608;8.838;2023-09-12T04:25:12;23.20;;;11.33;;
32292;SDS011;43233;48.608;8.838;2023-09-12T04:27:38;17.43;;;10.47;;
32292;SDS011;43233;48.608;8.838;2023-09-12T04:30:03;24.60;;;11.20;;
32292;SDS011;43233;48.608;8.838;2023-09-12T04:32:29;20.03;;;11.47;;
32292;SDS011;43233;48.608;8.838;2023-09-12T04:34:55;14.63;;;11.73;;
32292;SDS011;43233;48.608;8.838;2023-09-12T04:37:21;17.60;;;11.47;;
32292;SDS011;43233;48.608;8.838;2023-09-12T04:39:46;19.00;;;11.47;;
32292;SDS011;43233;48.608;8.838;2023-09-12T04:42:13;14.77;;;11.30;;
32292;SDS011;43233;48.608;8.838;2023-09-12T04:44:39;24.13;;;10.43;;
32292;SDS011;43233;48.608;8.838;2023-09-12T04:47:05;13.03;;;10.00;;
32292;SDS011;43233;48.608;8.838;2023-09-12T04:49:31;13.83;;;10.40;;
32292;SDS011;43233;48.608;8.838;2023-09-12T04:51:57;14.73;;;11.43;;
32292;SDS011;43233;48.608;8.838;2023-09-12T04:54:23;17.73;;;11.30;;
32292;SDS011;43233;48.608;8.838;2023-09-12T04:56:48;23.23;;;12.43;;
32292;SDS011;43233;48.608;8.838;2023-09-12T04:59:14;15.90;;;10.27;;
32292;SDS011;43233;48.608;8.838;2023-09-12T05:01:39;13.13;;;10.93;;
32292;SDS011;43233;48.608;8.838;2023-09-12T05:04:05;12.80;;;10.20;;
32292;SDS011;43233;48.608;8.838;2023-09-12T05:06:31;15.63;;;11.50;;
32292;SDS011;43233;48.608;8.838;2023-09-12T05:08:57;14.60;;;10.70;;
32292;SDS011;43233;48.608;8.838;2023-09-12T05:11:23;24.80;;;11.57;;
32292;SDS011;43233;48.608;8.838;2023-09-12T05:13:49;25.33;;;12.70;;
32292;SDS011;43233;48.608;8.838;2023-09-12T05:16:15;17.23;;;11.37;;
32292;SDS011;43233;48.608;8.838;2023-09-12T05:18:41;16.37;;;11.33;;
32292;SDS011;43233;48.608;8.838;2023-09-12T05:21:06;13.77;;;11.30;;
32292;SDS011;43233;48.608;8.838;2023-09-12T05:23:34;25.43;;;11.27;;
32292;SDS011;43233;48.608;8.838;2023-09-12T05:26:00;17.33;;;12.00;;
32292;SDS011;43233;48.608;8.838;2023-09-12T05:28:26;19.33;;;12.13;;
32292;SDS011;43233;48.608;8.838;2023-09-12T05:30:52;17.23;;;10.50;;
32292;SDS011;43233;48.608;8.838;2023-09-12T05:33:18;13.37;;;11.50;;
32292;SDS011;43233;48.608;8.838;2023-09-12T05:35:43;15.47;;;11.00;;
32292;SDS011;43233;48.608;8.838;2023-09-12T05:38:09;19.67;;;11.73;;
32292;SDS011;43233;48.608;8.838;2023-09-12T05:40:36;15.00;;;11.43;;
32292;SDS011;43233;48.608;8.838;2023-09-12T05:43:01;16.70;;;10.30;;
32292;SDS011;43233;48.608;8.838;2023-09-12T05:45:28;13.67;;;10.60;;
32292;SDS011;43233;48.608;8.838;2023-09-12T05:47:55;14.00;;;10.20;;
32292;SDS011;43233;48.608;8.838;2023-09-12T05:50:21;16.60;;;10.27;;
32292;SDS011;43233;48.608;8.838;2023-09-12T05:52:48;12.73;;;10.43;;
32292;SDS011;43233;48.608;8.838;2023-09-12T05:55:13;15.90;;;10.80;;
32292;SDS011;43233;48.608;8.838;2023-09-12T05:57:39;12.70;;;10.60;;
32292;SDS011;43233;48.608;8.838;2023-09-12T06:00:05;14.30;;;11.37;;
32292;SDS011;43233;48.608;8.838;2023-09-12T06:02:35;19.27;;;10.50;;
32292;SDS011;43233;48.608;8.838;2023-09-12T06:05:00;17.37;;;10.60;;
32292;SDS011;43233;48.608;8.838;2023-09-12T06:07:26;16.30;;;10.63;;
32292;SDS011;43233;48.608;8.838;2023-09-12T06:09:52;15.77;;;11.10;;
32292;SDS011;43233;48.608;8.838;2023-09-12T06:12:17;14.77;;;9.37;;
32292;SDS011;43233;48.608;8.838;2023-09-12T06:14:43;12.87;;;10.83;;
32292;SDS011;43233;48.608;8.838;2023-09-12T06:17:09;21.80;;;10.37;;
32292;SDS011;43233;48.608;8.838;2023-09-12T06:19:34;15.93;;;11.07;;
32292;SDS011;43233;48.608;8.838;2023-09-12T06:22:00;16.00;;;10.50;;
32292;SDS011;43233;48.608;8.838;2023-09-12T06:24:26;14.00;;;11.07;;
32292;SDS011;43233;48.608;8.838;2023-09-12T06:26:51;12.40;;;10.57;;
32292;SDS011;43233;48.608;8.838;2023-09-12T06:29:17;14.77;;;9.43;;
32292;SDS011;43233;48.608;8.838;2023-09-12T06:31:43;17.90;;;10.33;;
32292;SDS011;43233;48.608;8.838;2023-09-12T06:34:09;15.23;;;9.60;;
32292;SDS011;43233;48.608;8.838;2023-09-12T06:36:35;17.00;;;8.33;;
32292;SDS011;43233;48.608;8.838;2023-09-12T06:39:01;15.77;;;11.20;;
32292;SDS011;43233;48.608;8.838;2023-09-12T06:41:30;15.83;;;11.50;;
32292;SDS011;43233;48.608;8.838;2023-09-12T06:43:55;16.10;;;9.17;;
32292;SDS011;43233;48.608;8.838;2023-09-12T06:46:23;17.63;;;10.80;;
32292;SDS011;43233;48.608;8.838;2023-09-12T06:48:50;18.93;;;11.40;;
32292;SDS011;43233;48.608;8.838;2023-09-12T06:51:16;14.67;;;11.20;;
32292;SDS011;43233;48.608;8.838;2023-09-12T06:53:42;18.50;;;11.47;;
32292;SDS011;43233;48.608;8.838;2023-09-12T06:56:08;15.40;;;10.60;;
32292;SDS011;43233;48.608;8.838;2023-09-12T06:58:34;13.90;;;10.13;;
32292;SDS011;43233;48.608;8.838;2023-09-12T07:01:03;15.30;;;9.77;;
32292;SDS011;43233;48.608;8.838;2023-09-12T07:03:30;13.90;;;9.90;;
32292;SDS011;43233;48.608;8.838;2023-09-12T07:05:56;13.33;;;9.23;;
32292;SDS011;43233;48.608;8.838;2023-09-12T07:08:22;12.83;;;9.40;;
32292;SDS011;43233;48.608;8.838;2023-09-12T07:10:48;14.60;;;9.90;;
32292;SDS011;43233;48.608;8.838;2023-09-12T07:13:13;12.00;;;9.53;;
32292;SDS011;43233;48.608;8.838;2023-09-12T07:15:39;15.53;;;9.87;;
32292;SDS011;43233;48.608;8.838;2023-09-12T07:18:05;11.37;;;8.57;;
32292;SDS011;43233;48.608;8.838;2023-09-12T07:20:31;13.53;;;9.83;;
32292;SDS011;43233;48.608;8.838;2023-09-12T07:22:59;13.67;;;10.37;;
32292;SDS011;43233;48.608;8.838;2023-09-12T07:25:24;14.23;;;9.30;;
32292;SDS011;43233;48.608;8.838;2023-09-12T07:27:50;9.33;;;8.17;;
32292;SDS011;43233;48.608;8.838;2023-09-12T07:30:16;10.50;;;9.03;;
32292;SDS011;43233;48.608;8.838;2023-09-12T07:32:42;12.57;;;8.07;;
32292;SDS011;43233;48.608;8.838;2023-09-12T07:35:07;17.70;;;10.43;;
32292;SDS011;43233;48.608;8.838;2023-09-12T07:37:33;12.20;;;9.97;;
32292;SDS011;43233;48.608;8.838;2023-09-12T07:39:59;12.33;;;10.20;;
32292;SDS011;43233;48.608;8.838;2023-09-12T07:42:25;18.30;;;10.67;;
32292;SDS011;43233;48.608;8.838;2023-09-12T07:44:51;15.50;;;10.73;;
32292;SDS011;43233;48.608;8.838;2023-09-12T07:47:17;16.63;;;9.90;;
32292;SDS011;43233;48.608;8.838;2023-09-12T07:49:43;14.30;;;9.07;;
32292;SDS011;43233;48.608;8.838;2023-09-12T07:52:09;18.60;;;10.60;;
32292;SDS011;43233;48.608;8.838;2023-09-12T07:54:34;16.00;;;10.10;;
32292;SDS011;43233;48.608;8.838;2023-09-12T07:57:01;17.93;;;9.07;;
32292;SDS011;43233;48.608;8.838;2023-09-12T07:59:28;19.40;;;10.03;;
32292;SDS011;43233;48.608;8.838;2023-09-12T08:01:53;14.70;;;10.53;;
32292;SDS011;43233;48.608;8.838;2023-09-12T08:04:19;17.63;;;10.27;;
32292;SDS011;43233;48.608;8.838;2023-09-12T08:06:45;11.37;;;10.17;;
32292;SDS011;43233;48.608;8.838;2023-09-12T08:09:10;19.60;;;10.43;;
32292;SDS011;43233;48.608;8.838;2023-09-12T08:11:36;15.60;;;10.37;;
32292;SDS011;43233;48.608;8.838;2023-09-12T08:14:02;18.17;;;12.17;;
32292;SDS011;43233;48.608;8.838;2023-09-12T08:16:28;27.97;;;11.20;;
32292;SDS011;43233;48.608;8.838;2023-09-12T08:18:53;17.77;;;9.50;;
32292;SDS011;43233;48.608;8.838;2023-09-12T08:21:19;14.83;;;11.03;;
32292;SDS011;43233;48.608;8.838;2023-09-12T08:23:45;13.20;;;10.20;;
32292;SDS011;43233;48.608;8.838;2023-09-12T08:26:11;18.20;;;10.93;;
32292;SDS011;43233;48.608;8.838;2023-09-12T08:28:36;26.07;;;11.43;;
32292;SDS011;43233;48.608;8.838;2023-09-12T08:31:02;21.90;;;10.03;;
32292;SDS011;43233;48.608;8.838;2023-09-12T08:33:27;12.30;;;9.77;;
32292;SDS011;43233;48.608;8.838;2023-09-12T08:35:53;14.33;;;10.43;;
32292;SDS011;43233;48.608;8.838;2023-09-12T08:38:19;12.87;;;10.40;;
32292;SDS011;43233;48.608;8.838;2023-09-12T08:40:50;11.00;;;8.77;;
32292;SDS011;43233;48.608;8.838;2023-09-12T08:43:16;18.47;;;11.27;;
32292;SDS011;43233;48.608;8.838;2023-09-12T08:45:43;15.47;;;9.20;;
32292;SDS011;43233;48.608;8.838;2023-09-12T08:48:09;18.60;;;10.67;;
32292;SDS011;43233;48.608;8.838;2023-09-12T08:50:36;12.53;;;9.37;;
32292;SDS011;43233;48.608;8.838;2023-09-12T08:53:02;15.00;;;9.90;;
32292;SDS011;43233;48.608;8.838;2023-09-12T08:55:28;13.93;;;10.07;;
32292;SDS011;43233;48.608;8.838;2023-09-12T08:57:55;16.53;;;10.30;;
32292;SDS011;43233;48.608;8.838;2023-09-12T09:00:22;19.97;;;10.30;;
32292;SDS011;43233;48.608;8.838;2023-09-12T09:02:48;12.53;;;9.40;;
32292;SDS011;43233;48.608;8.838;2023-09-12T09:05:15;11.33;;;8.60;;
32292;SDS011;43233;48.608;8.838;2023-09-12T09:07:42;21.80;;;10.80;;
32292;SDS011;43233;48.608;8.838;2023-09-12T09:10:15;13.33;;;10.17;;
32292;SDS011;43233;48.608;8.838;2023-09-12T09:12:45;12.53;;;9.37;;
32292;SDS011;43233;48.608;8.838;2023-09-12T09:15:27;11.60;;;8.30;;
32292;SDS011;43233;48.608;8.838;2023-09-12T09:17:54;20.97;;;9.50;;
32292;SDS011;43233;48.608;8.838;2023-09-12T09:20:25;17.10;;;10.50;;
32292;SDS011;43233;48.608;8.838;2023-09-12T09:23:03;13.50;;;9.20;;
32292;SDS011;43233;48.608;8.838;2023-09-12T09:25:31;14.70;;;9.17;;
32292;SDS011;43233;48.608;8.838;2023-09-12T09:30:50;14.27;;;9.00;;
32292;SDS011;43233;48.608;8.838;2023-09-12T09:33:16;12.03;;;8.80;;
32292;SDS011;43233;48.608;8.838;2023-09-12T09:35:43;12.87;;;10.10;;
32292;SDS011;43233;48.608;8.838;2023-09-12T09:38:14;10.30;;;8.53;;
32292;SDS011;43233;48.608;8.838;2023-09-12T09:40:44;12.80;;;9.13;;
32292;SDS011;43233;48.608;8.838;2023-09-12T09:43:10;12.50;;;9.10;;
32292;SDS011;43233;48.608;8.838;2023-09-12T09:45:42;11.13;;;8.20;;
32292;SDS011;43233;48.608;8.838;2023-09-12T09:48:22;10.43;;;8.53;;
32292;SDS011;43233;48.608;8.838;2023-09-12T09:50:52;12.63;;;8.90;;
32292;SDS011;43233;48.608;8.838;2023-09-12T09:53:21;11.73;;;9.07;;
32292;SDS011;43233;48.608;8.838;2023-09-12T09:55:51;12.27;;;8.80;;
32292;SDS011;43233;48.608;8.838;2023-09-12T09:58:17;9.43;;;7.83;;
32292;SDS011;43233;48.608;8.838;2023-09-12T10:00:43;15.73;;;8.50;;
32292;SDS011;43233;48.608;8.838;2023-09-12T10:03:09;10.17;;;7.97;;
32292;SDS011;43233;48.608;8.838;2023-09-12T10:05:37;14.40;;;7.93;;
32292;SDS011;43233;48.608;8.838;2023-09-12T10:08:03;9.27;;;7.80;;
32292;SDS011;43233;48.608;8.838;2023-09-12T10:10:33;11.63;;;8.57;;
32292;SDS011;43233;48.608;8.838;2023-09-12T10:13:00;10.80;;;8.57;;
32292;SDS011;43233;48.608;8.838;2023-09-12T10:15:29;11.87;;;8.00;;
32292;SDS011;43233;48.608;8.838;2023-09-12T10:18:02;9.90;;;7.90;;
32292;SDS011;43233;48.608;8.838;2023-09-12T10:20:35;8.50;;;7.47;;
32292;SDS011;43233;48.608;8.838;2023-09-12T10:23:14;10.67;;;7.93;;
32292;SDS011;43233;48.608;8.838;2023-09-12T10:26:02;10.37;;;8.00;;
32292;SDS011;43233;48.608;8.838;2023-09-12T10:28:28;11.33;;;8.17;;
32292;SDS011;43233;48.608;8.838;2023-09-12T10:30:55;18.43;;;8.73;;
32292;SDS011;43233;48.608;8.838;2023-09-12T10:33:23;12.67;;;7.97;;
32292;SDS011;43233;48.608;8.838;2023-09-12T10:35:50;13.13;;;8.60;;
32292;SDS011;43233;48.608;8.838;2023-09-12T10:38:17;14.60;;;7.97;;
32292;SDS011;43233;48.608;8.838;2023-09-12T10:40:45;16.17;;;8.43;;
32292;SDS011;43233;48.608;8.838;2023-09-12T10:43:12;16.70;;;8.00;;
32292;SDS011;43233;48.608;8.838;2023-09-12T10:45:39;8.93;;;6.87;;
32292;SDS011;43233;48.608;8.838;2023-09-12T10:48:06;10.63;;;7.57;;
32292;SDS011;43233;48.608;8.838;2023-09-12T10:50:34;8.43;;;6.90;;
32292;SDS011;43233;48.608;8.838;2023-09-12T10:53:13;7.63;;;6.93;;
32292;SDS011;43233;48.608;8.838;2023-09-12T10:55:41;8.30;;;7.50;;
32292;SDS011;43233;48.608;8.838;2023-09-12T10:58:07;10.90;;;7.53;;
32292;SDS011;43233;48.608;8.838;2023-09-12T11:00:35;8.90;;;7.00;;
32292;SDS011;43233;48.608;8.838;2023-09-12T11:05:54;10.70;;;7.13;;
32292;SDS011;43233;48.608;8.838;2023-09-12T11:08:21;9.47;;;6.33;;
32292;SDS011;43233;48.608;8.838;2023-09-12T11:13:41;9.23;;;6.40;;
32292;SDS011;43233;48.608;8.838;2023-09-12T11:16:15;7.90;;;6.77;;
32292;SDS011;43233;48.608;8.838;2023-09-12T11:21:41;11.20;;;7.47;;
32292;SDS011;43233;48.608;8.838;2023-09-12T11:24:11;7.50;;;6.60;;
32292;SDS011;43233;48.608;8.838;2023-09-12T11:29:19;9.47;;;7.43;;
32292;SDS011;43233;48.608;8.838;2023-09-12T11:31:52;13.57;;;6.77;;
32292;SDS011;43233;48.608;8.838;2023-09-12T11:34:27;7.10;;;6.40;;
32292;SDS011;43233;48.608;8.838;2023-09-12T11:36:57;10.20;;;6.57;;
32292;SDS011;43233;48.608;8.838;2023-09-12T11:39:29;7.97;;;7.10;;
32292;SDS011;43233;48.608;8.838;2023-09-12T11:41:59;18.27;;;5.80;;
32292;SDS011;43233;48.608;8.838;2023-09-12T11:44:26;8.40;;;6.50;;
32292;SDS011;43233;48.608;8.838;2023-09-12T11:46:52;7.13;;;6.43;;
32292;SDS011;43233;48.608;8.838;2023-09-12T11:49:19;6.57;;;5.97;;
32292;SDS011;43233;48.608;8.838;2023-09-12T11:54:18;6.60;;;6.00;;
32292;SDS011;43233;48.608;8.838;2023-09-12T11:56:48;8.00;;;6.73;;
32292;SDS011;43233;48.608;8.838;2023-09-12T11:59:15;7.37;;;5.83;;
32292;SDS011;43233;48.608;8.838;2023-09-12T12:01:44;6.60;;;6.00;;
32292;SDS011;43233;48.608;8.838;2023-09-12T12:04:10;12.60;;;6.07;;
32292;SDS011;43233;48.608;8.838;2023-09-12T12:06:36;11.40;;;5.53;;
32292;SDS011;43233;48.608;8.838;2023-09-12T12:09:02;6.20;;;5.60;;
32292;SDS011;43233;48.608;8.838;2023-09-12T12:11:29;8.00;;;6.77;;
32292;SDS011;43233;48.608;8.838;2023-09-12T12:13:56;12.10;;;6.00;;
32292;SDS011;43233;48.608;8.838;2023-09-12T12:16:22;6.93;;;6.23;;
32292;SDS011;43233;48.608;8.838;2023-09-12T12:18:50;10.70;;;6.23;;
32292;SDS011;43233;48.608;8.838;2023-09-12T12:21:19;9.70;;;6.13;;
32292;SDS011;43233;48.608;8.838;2023-09-12T12:23:57;6.73;;;6.13;;
32292;SDS011;43233;48.608;8.838;2023-09-12T12:26:24;8.07;;;5.90;;
32292;SDS011;43233;48.608;8.838;2023-09-12T12:28:50;6.20;;;5.60;;
32292;SDS011;43233;48.608;8.838;2023-09-12T12:31:16;6.33;;;5.67;;
32292;SDS011;43233;48.608;8.838;2023-09-12T12:33:47;7.70;;;5.83;;
32292;SDS011;43233;48.608;8.838;2023-09-12T12:36:17;19.80;;;6.23;;
32292;SDS011;43233;48.608;8.838;2023-09-12T12:38:45;9.80;;;6.20;;
32292;SDS011;43233;48.608;8.838;2023-09-12T12:41:13;11.17;;;5.73;;
32292;SDS011;43233;48.608;8.838;2023-09-12T12:43:40;6.20;;;5.60;;
32292;SDS011;43233;48.608;8.838;2023-09-12T12:46:10;6.87;;;5.83;;
32292;SDS011;43233;48.608;8.838;2023-09-12T12:48:37;6.80;;;4.97;;
32292;SDS011;43233;48.608;8.838;2023-09-12T12:51:13;5.27;;;4.77;;
32292;SDS011;43233;48.608;8.838;2023-09-12T12:53:47;5.33;;;4.87;;
32292;SDS011;43233;48.608;8.838;2023-09-12T12:56:28;5.57;;;5.07;;
32292;SDS011;43233;48.608;8.838;2023-09-12T12:58:55;7.87;;;5.00;;
32292;SDS011;43233;48.608;8.838;2023-09-12T13:01:23;5.80;;;5.30;;
32292;SDS011;43233;48.608;8.838;2023-09-12T13:03:49;7.20;;;5.47;;
32292;SDS011;43233;48.608;8.838;2023-09-12T13:06:16;7.27;;;5.30;;
32292;SDS011;43233;48.608;8.838;2023-09-12T13:08:46;6.07;;;5.37;;
32292;SDS011;43233;48.608;8.838;2023-09-12T13:11:14;6.93;;;4.70;;
32292;SDS011;43233;48.608;8.838;2023-09-12T13:13:41;6.40;;;5.80;;
32292;SDS011;43233;48.608;8.838;2023-09-12T13:16:08;7.10;;;5.03;;
32292;SDS011;43233;48.608;8.838;2023-09-12T13:18:35;5.53;;;5.00;;
32292;SDS011;43233;48.608;8.838;2023-09-12T13:21:02;10.07;;;6.17;;
32292;SDS011;43233;48.608;8.838;2023-09-12T13:23:30;7.10;;;5.90;;
32292;SDS011;43233;48.608;8.838;2023-09-12T13:25:56;8.20;;;5.80;;
32292;SDS011;43233;48.608;8.838;2023-09-12T13:28:22;9.80;;;6.20;;
32292;SDS011;43233;48.608;8.838;2023-09-12T13:30:52;10.50;;;5.47;;
32292;SDS011;43233;48.608;8.838;2023-09-12T13:33:18;13.67;;;6.07;;
32292;SDS011;43233;48.608;8.838;2023-09-12T13:35:44;11.30;;;6.00;;
32292;SDS011;43233;48.608;8.838;2023-09-12T13:38:10;7.07;;;6.13;;
32292;SDS011;43233;48.608;8.838;2023-09-12T13:40:39;8.00;;;5.20;;
32292;SDS011;43233;48.608;8.838;2023-09-12T13:43:05;8.63;;;6.13;;
32292;SDS011;43233;48.608;8.838;2023-09-12T13:45:32;11.43;;;6.13;;
32292;SDS011;43233;48.608;8.838;2023-09-12T13:48:03;11.63;;;6.47;;
32292;SDS011;43233;48.608;8.838;2023-09-12T13:50:30;6.30;;;5.70;;
32292;SDS011;43233;48.608;8.838;2023-09-12T13:52:57;9.60;;;5.90;;
32292;SDS011;43233;48.608;8.838;2023-09-12T13:55:29;9.20;;;6.20;;
32292;SDS011;43233;48.608;8.838;2023-09-12T13:57:55;8.67;;;6.50;;
32292;SDS011;43233;48.608;8.838;2023-09-12T14:00:20;13.60;;;6.77;;
32292;SDS011;43233;48.608;8.838;2023-09-12T14:02:46;8.43;;;5.50;;
32292;SDS011;43233;48.608;8.838;2023-09-12T14:05:12;6.60;;;5.57;;
32292;SDS011;43233;48.608;8.838;2023-09-12T14:07:38;10.53;;;6.37;;
32292;SDS011;43233;48.608;8.838;2023-09-12T14:10:05;7.53;;;6.70;;
32292;SDS011;43233;48.608;8.838;2023-09-12T14:12:34;7.67;;;6.27;;
32292;SDS011;43233;48.608;8.838;2023-09-12T14:15:00;6.00;;;5.40;;
32292;SDS011;43233;48.608;8.838;2023-09-12T14:17:26;8.03;;;6.30;;
32292;SDS011;43233;48.608;8.838;2023-09-12T14:19:53;6.47;;;5.80;;
32292;SDS011;43233;48.608;8.838;2023-09-12T14:22:20;12.70;;;6.80;;
32292;SDS011;43233;48.608;8.838;2023-09-12T14:24:46;6.40;;;5.50;;
32292;SDS011;43233;48.608;8.838;2023-09-12T14:27:12;10.37;;;6.27;;
32292;SDS011;43233;48.608;8.838;2023-09-12T14:29:37;9.70;;;5.73;;
32292;SDS011;43233;48.608;8.838;2023-09-12T14:32:03;10.00;;;7.37;;
32292;SDS011;43233;48.608;8.838;2023-09-12T14:34:29;12.50;;;6.20;;
32292;SDS011;43233;48.608;8.838;2023-09-12T14:36:57;14.07;;;7.03;;
32292;SDS011;43233;48.608;8.838;2023-09-12T14:39:23;8.80;;;7.00;;
32292;SDS011;43233;48.608;8.838;2023-09-12T14:41:49;16.57;;;6.87;;
32292;SDS011;43233;48.608;8.838;2023-09-12T14:44:19;11.53;;;7.37;;
32292;SDS011;43233;48.608;8.838;2023-09-12T14:46:52;9.97;;;7.63;;
32292;SDS011;43233;48.608;8.838;2023-09-12T14:49:18;6.70;;;5.83;;
32292;SDS011;43233;48.608;8.838;2023-09-12T14:51:44;13.10;;;6.80;;
32292;SDS011;43233;48.608;8.838;2023-09-12T14:54:10;12.47;;;6.43;;
32292;SDS011;43233;48.608;8.838;2023-09-12T14:56:36;6.17;;;5.50;;